sensor_id;sensor_type;location;lat;lon;timestamp;temperature;humidity
420;DHT22;42600;54.408;13.016;2024-03-06T00:01:20;3.70;92.70
420;DHT22;42600;54.408;13.016;2024-03-06T00:03:46;3.70;92.70
420;DHT22;42600;54.408;13.016;2024-03-06T00:06:14;3.70;92.70
420;DHT22;42600;54.408;13.016;2024-03-06T00:08:41;3.70;92.70
420;DHT22;42600;54.408;13.016;2024-03-06T00:11:07;3.70;92.70
420;DHT22;42600;54.408;13.016;2024-03-06T00:13:34;3.70;92.70
420;DHT22;42600;54.408;13.016;2024-03-06T00:16:01;3.70;92.70
420;DHT22;42600;54.408;13.016;2024-03-06T00:18:27;3.70;92.70
420;DHT22;42600;54.408;13.016;2024-03-06T00:20:54;3.70;92.70
420;DHT22;42600;54.408;13.016;2024-03-06T00:23:22;3.70;92.70
420;DHT22;42600;54.408;13.016;2024-03-06T00:25:48;3.70;92.70
420;DHT22;42600;54.408;13.016;2024-03-06T00:28:15;3.80;92.70
420;DHT22;42600;54.408;13.016;2024-03-06T00:30:41;3.80;92.70
420;DHT22;42600;54.408;13.016;2024-03-06T00:33:08;3.80;92.70
420;DHT22;42600;54.408;13.016;2024-03-06T00:35:34;3.80;92.70
420;DHT22;42600;54.408;13.016;2024-03-06T00:38:01;3.80;92.70
420;DHT22;42600;54.408;13.016;2024-03-06T00:40:29;3.80;92.70
420;DHT22;42600;54.408;13.016;2024-03-06T00:42:56;3.80;92.70
420;DHT22;42600;54.408;13.016;2024-03-06T00:45:23;3.80;92.70
420;DHT22;42600;54.408;13.016;2024-03-06T00:47:50;3.80;92.70
420;DHT22;42600;54.408;13.016;2024-03-06T00:50:16;3.80;92.70
420;DHT22;42600;54.408;13.016;2024-03-06T00:52:43;3.90;92.70
420;DHT22;42600;54.408;13.016;2024-03-06T00:55:11;3.80;92.70
420;DHT22;42600;54.408;13.016;2024-03-06T00:57:39;3.90;92.70
420;DHT22;42600;54.408;13.016;2024-03-06T01:00:06;3.90;92.70
420;DHT22;42600;54.408;13.016;2024-03-06T01:02:36;3.90;92.70
420;DHT22;42600;54.408;13.016;2024-03-06T01:05:03;3.90;92.70
420;DHT22;42600;54.408;13.016;2024-03-06T01:07:30;3.90;92.70
420;DHT22;42600;54.408;13.016;2024-03-06T01:09:56;3.90;92.70
420;DHT22;42600;54.408;13.016;2024-03-06T01:12:23;3.90;92.70
420;DHT22;42600;54.408;13.016;2024-03-06T01:14:52;3.90;92.70
420;DHT22;42600;54.408;13.016;2024-03-06T01:17:18;3.90;92.70
420;DHT22;42600;54.408;13.016;2024-03-06T01:19:45;3.90;92.70
420;DHT22;42600;54.408;13.016;2024-03-06T01:22:11;3.90;92.70
420;DHT22;42600;54.408;13.016;2024-03-06T01:24:38;3.90;92.70
420;DHT22;42600;54.408;13.016;2024-03-06T01:27:05;3.90;92.70
420;DHT22;42600;54.408;13.016;2024-03-06T01:29:32;3.90;92.70
420;DHT22;42600;54.408;13.016;2024-03-06T01:32:01;3.90;92.70
420;DHT22;42600;54.408;13.016;2024-03-06T01:34:27;3.90;92.70
420;DHT22;42600;54.408;13.016;2024-03-06T01:36:55;3.90;92.70
420;DHT22;42600;54.408;13.016;2024-03-06T01:39:22;3.90;92.70
420;DHT22;42600;54.408;13.016;2024-03-06T01:41:50;3.90;92.70
420;DHT22;42600;54.408;13.016;2024-03-06T01:44:18;3.90;92.70
420;DHT22;42600;54.408;13.016;2024-03-06T01:46:45;3.90;92.70
420;DHT22;42600;54.408;13.016;2024-03-06T01:49:15;3.90;92.70
420;DHT22;42600;54.408;13.016;2024-03-06T01:51:44;3.90;92.70
420;DHT22;42600;54.408;13.016;2024-03-06T01:54:11;3.90;92.70
420;DHT22;42600;54.408;13.016;2024-03-06T01:56:39;3.90;92.70
420;DHT22;42600;54.408;13.016;2024-03-06T01:59:11;3.90;92.70
420;DHT22;42600;54.408;13.016;2024-03-06T02:01:38;3.90;92.70
420;DHT22;42600;54.408;13.016;2024-03-06T02:04:06;3.90;92.70
420;DHT22;42600;54.408;13.016;2024-03-06T02:06:37;4.00;92.70
420;DHT22;42600;54.408;13.016;2024-03-06T02:09:04;4.00;92.70
420;DHT22;42600;54.408;13.016;2024-03-06T02:11:32;4.00;92.70
420;DHT22;42600;54.408;13.016;2024-03-06T02:13:59;4.00;92.70
420;DHT22;42600;54.408;13.016;2024-03-06T02:16:25;4.00;92.70
420;DHT22;42600;54.408;13.016;2024-03-06T02:18:52;4.00;92.70
420;DHT22;42600;54.408;13.016;2024-03-06T02:21:21;4.00;92.70
420;DHT22;42600;54.408;13.016;2024-03-06T02:23:49;4.00;92.70
420;DHT22;42600;54.408;13.016;2024-03-06T02:26:16;4.00;92.70
420;DHT22;42600;54.408;13.016;2024-03-06T02:28:47;4.00;92.70
420;DHT22;42600;54.408;13.016;2024-03-06T02:31:14;4.00;92.70
420;DHT22;42600;54.408;13.016;2024-03-06T02:33:40;4.00;92.70
420;DHT22;42600;54.408;13.016;2024-03-06T02:36:07;4.00;92.70
420;DHT22;42600;54.408;13.016;2024-03-06T02:38:35;4.00;92.70
420;DHT22;42600;54.408;13.016;2024-03-06T02:41:02;4.00;92.70
420;DHT22;42600;54.408;13.016;2024-03-06T02:43:29;4.00;92.70
420;DHT22;42600;54.408;13.016;2024-03-06T02:45:56;4.00;92.70
420;DHT22;42600;54.408;13.016;2024-03-06T02:48:22;4.00;92.70
420;DHT22;42600;54.408;13.016;2024-03-06T02:50:49;4.00;92.70
420;DHT22;42600;54.408;13.016;2024-03-06T02:53:16;4.00;92.70
420;DHT22;42600;54.408;13.016;2024-03-06T02:55:44;4.00;92.70
420;DHT22;42600;54.408;13.016;2024-03-06T02:58:11;4.00;92.70
420;DHT22;42600;54.408;13.016;2024-03-06T03:00:39;4.00;92.70
420;DHT22;42600;54.408;13.016;2024-03-06T03:03:06;4.00;92.70
420;DHT22;42600;54.408;13.016;2024-03-06T03:05:33;4.00;92.70
420;DHT22;42600;54.408;13.016;2024-03-06T03:08:00;4.00;92.70
420;DHT22;42600;54.408;13.016;2024-03-06T03:10:26;4.00;92.70
420;DHT22;42600;54.408;13.016;2024-03-06T03:12:54;4.00;92.70
420;DHT22;42600;54.408;13.016;2024-03-06T03:15:21;4.00;92.70
420;DHT22;42600;54.408;13.016;2024-03-06T03:17:48;4.00;92.70
420;DHT22;42600;54.408;13.016;2024-03-06T03:20:14;4.00;92.70
420;DHT22;42600;54.408;13.016;2024-03-06T03:22:42;4.00;92.70
420;DHT22;42600;54.408;13.016;2024-03-06T03:25:10;4.00;92.70
420;DHT22;42600;54.408;13.016;2024-03-06T03:27:37;4.00;92.70
420;DHT22;42600;54.408;13.016;2024-03-06T03:30:07;4.00;92.70
420;DHT22;42600;54.408;13.016;2024-03-06T03:32:35;4.00;92.70
420;DHT22;42600;54.408;13.016;2024-03-06T03:35:02;4.00;92.70
420;DHT22;42600;54.408;13.016;2024-03-06T03:37:29;4.00;92.70
420;DHT22;42600;54.408;13.016;2024-03-06T03:39:56;4.00;92.70
420;DHT22;42600;54.408;13.016;2024-03-06T03:42:22;4.00;92.70
420;DHT22;42600;54.408;13.016;2024-03-06T03:44:49;4.00;92.70
420;DHT22;42600;54.408;13.016;2024-03-06T03:47:17;4.00;92.70
420;DHT22;42600;54.408;13.016;2024-03-06T03:49:44;4.00;92.70
420;DHT22;42600;54.408;13.016;2024-03-06T03:52:11;4.00;92.70
420;DHT22;42600;54.408;13.016;2024-03-06T03:54:37;4.00;92.70
420;DHT22;42600;54.408;13.016;2024-03-06T03:57:04;4.00;92.70
420;DHT22;42600;54.408;13.016;2024-03-06T03:59:32;4.00;92.70
420;DHT22;42600;54.408;13.016;2024-03-06T04:01:59;4.00;92.70
420;DHT22;42600;54.408;13.016;2024-03-06T04:04:27;4.00;92.70
420;DHT22;42600;54.408;13.016;2024-03-06T04:06:54;4.00;92.70
420;DHT22;42600;54.408;13.016;2024-03-06T04:09:21;4.00;92.70
420;DHT22;42600;54.408;13.016;2024-03-06T04:11:47;4.00;92.70
420;DHT22;42600;54.408;13.016;2024-03-06T04:14:14;4.00;92.70
420;DHT22;42600;54.408;13.016;2024-03-06T04:16:41;4.10;92.70
420;DHT22;42600;54.408;13.016;2024-03-06T04:19:07;4.10;92.70
420;DHT22;42600;54.408;13.016;2024-03-06T04:21:40;4.10;92.70
420;DHT22;42600;54.408;13.016;2024-03-06T04:24:07;4.00;92.70
420;DHT22;42600;54.408;13.016;2024-03-06T04:26:34;4.00;92.70
420;DHT22;42600;54.408;13.016;2024-03-06T04:29:01;4.00;92.70
420;DHT22;42600;54.408;13.016;2024-03-06T04:31:28;4.00;92.70
420;DHT22;42600;54.408;13.016;2024-03-06T04:33:55;4.00;92.70
420;DHT22;42600;54.408;13.016;2024-03-06T04:36:21;4.00;92.70
420;DHT22;42600;54.408;13.016;2024-03-06T04:38:49;4.00;92.70
420;DHT22;42600;54.408;13.016;2024-03-06T04:41:18;4.00;92.70
420;DHT22;42600;54.408;13.016;2024-03-06T04:43:45;4.00;92.70
420;DHT22;42600;54.408;13.016;2024-03-06T04:46:12;4.00;92.70
420;DHT22;42600;54.408;13.016;2024-03-06T04:48:40;4.10;92.70
420;DHT22;42600;54.408;13.016;2024-03-06T04:51:06;4.10;92.70
420;DHT22;42600;54.408;13.016;2024-03-06T04:53:35;4.10;92.70
420;DHT22;42600;54.408;13.016;2024-03-06T04:56:03;4.10;92.70
420;DHT22;42600;54.408;13.016;2024-03-06T04:58:30;4.10;92.70
420;DHT22;42600;54.408;13.016;2024-03-06T05:00:57;4.10;92.70
420;DHT22;42600;54.408;13.016;2024-03-06T05:03:23;4.10;92.70
420;DHT22;42600;54.408;13.016;2024-03-06T05:05:50;4.10;92.70
420;DHT22;42600;54.408;13.016;2024-03-06T05:08:17;4.10;92.70
420;DHT22;42600;54.408;13.016;2024-03-06T05:10:44;4.10;92.70
420;DHT22;42600;54.408;13.016;2024-03-06T05:13:12;4.10;92.70
420;DHT22;42600;54.408;13.016;2024-03-06T05:15:39;4.10;92.70
420;DHT22;42600;54.408;13.016;2024-03-06T05:18:05;4.10;92.70
420;DHT22;42600;54.408;13.016;2024-03-06T05:20:33;4.10;92.70
420;DHT22;42600;54.408;13.016;2024-03-06T05:22:59;4.10;92.70
420;DHT22;42600;54.408;13.016;2024-03-06T05:25:26;4.00;92.70
420;DHT22;42600;54.408;13.016;2024-03-06T05:27:53;3.90;92.70
420;DHT22;42600;54.408;13.016;2024-03-06T05:30:21;3.70;92.70
420;DHT22;42600;54.408;13.016;2024-03-06T05:32:47;3.60;92.70
420;DHT22;42600;54.408;13.016;2024-03-06T05:35:14;3.50;92.70
420;DHT22;42600;54.408;13.016;2024-03-06T05:37:42;3.50;92.70
420;DHT22;42600;54.408;13.016;2024-03-06T05:40:10;3.40;92.70
420;DHT22;42600;54.408;13.016;2024-03-06T05:42:36;3.40;92.70
420;DHT22;42600;54.408;13.016;2024-03-06T05:45:04;3.40;92.70
420;DHT22;42600;54.408;13.016;2024-03-06T05:47:37;3.50;92.70
420;DHT22;42600;54.408;13.016;2024-03-06T05:50:05;3.40;92.70
420;DHT22;42600;54.408;13.016;2024-03-06T05:52:31;3.40;92.70
420;DHT22;42600;54.408;13.016;2024-03-06T05:54:59;3.40;92.70
420;DHT22;42600;54.408;13.016;2024-03-06T05:57:26;3.40;92.70
420;DHT22;42600;54.408;13.016;2024-03-06T05:59:52;3.50;92.70
420;DHT22;42600;54.408;13.016;2024-03-06T06:02:20;3.40;92.70
420;DHT22;42600;54.408;13.016;2024-03-06T06:04:49;3.40;92.70
420;DHT22;42600;54.408;13.016;2024-03-06T06:07:15;3.40;92.70
420;DHT22;42600;54.408;13.016;2024-03-06T06:09:42;3.40;92.70
420;DHT22;42600;54.408;13.016;2024-03-06T06:12:08;3.40;92.70
420;DHT22;42600;54.408;13.016;2024-03-06T06:14:35;3.40;92.70
420;DHT22;42600;54.408;13.016;2024-03-06T06:17:02;3.40;92.70
420;DHT22;42600;54.408;13.016;2024-03-06T06:19:29;3.40;92.70
420;DHT22;42600;54.408;13.016;2024-03-06T06:21:57;3.50;92.70
420;DHT22;42600;54.408;13.016;2024-03-06T06:24:23;3.50;92.70
420;DHT22;42600;54.408;13.016;2024-03-06T06:26:50;3.50;92.70
420;DHT22;42600;54.408;13.016;2024-03-06T06:29:17;3.50;92.70
420;DHT22;42600;54.408;13.016;2024-03-06T06:31:44;3.60;92.70
420;DHT22;42600;54.408;13.016;2024-03-06T06:34:11;3.60;92.70
420;DHT22;42600;54.408;13.016;2024-03-06T06:36:37;3.60;92.70
420;DHT22;42600;54.408;13.016;2024-03-06T06:39:07;3.60;92.70
420;DHT22;42600;54.408;13.016;2024-03-06T06:41:35;3.60;92.70
420;DHT22;42600;54.408;13.016;2024-03-06T06:44:02;3.60;92.70
420;DHT22;42600;54.408;13.016;2024-03-06T06:46:29;3.70;92.70
420;DHT22;42600;54.408;13.016;2024-03-06T06:48:56;3.70;92.70
420;DHT22;42600;54.408;13.016;2024-03-06T06:51:24;3.80;92.70
420;DHT22;42600;54.408;13.016;2024-03-06T06:53:50;3.80;92.70
420;DHT22;42600;54.408;13.016;2024-03-06T06:56:18;3.90;92.70
420;DHT22;42600;54.408;13.016;2024-03-06T06:58:47;3.90;92.70
420;DHT22;42600;54.408;13.016;2024-03-06T07:01:14;4.00;92.70
420;DHT22;42600;54.408;13.016;2024-03-06T07:03:42;4.10;92.70
420;DHT22;42600;54.408;13.016;2024-03-06T07:06:08;4.10;92.70
420;DHT22;42600;54.408;13.016;2024-03-06T07:08:36;4.20;92.70
420;DHT22;42600;54.408;13.016;2024-03-06T07:11:04;4.20;92.70
420;DHT22;42600;54.408;13.016;2024-03-06T07:13:32;4.30;92.70
420;DHT22;42600;54.408;13.016;2024-03-06T07:15:59;4.30;92.70
420;DHT22;42600;54.408;13.016;2024-03-06T07:18:25;4.30;92.70
420;DHT22;42600;54.408;13.016;2024-03-06T07:20:52;4.40;92.70
420;DHT22;42600;54.408;13.016;2024-03-06T07:23:19;4.50;92.70
420;DHT22;42600;54.408;13.016;2024-03-06T07:25:45;4.50;92.70
420;DHT22;42600;54.408;13.016;2024-03-06T07:28:12;4.70;92.70
420;DHT22;42600;54.408;13.016;2024-03-06T07:30:40;4.70;92.70
420;DHT22;42600;54.408;13.016;2024-03-06T07:33:07;4.90;92.70
420;DHT22;42600;54.408;13.016;2024-03-06T07:35:34;4.90;92.70
420;DHT22;42600;54.408;13.016;2024-03-06T07:38:01;4.80;92.70
420;DHT22;42600;54.408;13.016;2024-03-06T07:40:29;4.90;92.70
420;DHT22;42600;54.408;13.016;2024-03-06T07:42:56;4.90;92.70
420;DHT22;42600;54.408;13.016;2024-03-06T07:45:23;4.90;92.70
420;DHT22;42600;54.408;13.016;2024-03-06T07:47:51;5.00;92.70
420;DHT22;42600;54.408;13.016;2024-03-06T07:50:18;5.10;92.70
420;DHT22;42600;54.408;13.016;2024-03-06T07:52:45;5.10;92.70
420;DHT22;42600;54.408;13.016;2024-03-06T07:55:11;5.20;92.70
420;DHT22;42600;54.408;13.016;2024-03-06T07:57:38;5.10;92.70
420;DHT22;42600;54.408;13.016;2024-03-06T08:00:06;5.10;92.70
420;DHT22;42600;54.408;13.016;2024-03-06T08:02:39;5.10;92.70
420;DHT22;42600;54.408;13.016;2024-03-06T08:05:09;5.20;92.70
420;DHT22;42600;54.408;13.016;2024-03-06T08:07:37;5.30;92.70
420;DHT22;42600;54.408;13.016;2024-03-06T08:10:06;5.30;92.70
420;DHT22;42600;54.408;13.016;2024-03-06T08:12:34;5.40;92.70
420;DHT22;42600;54.408;13.016;2024-03-06T08:15:00;5.50;92.70
420;DHT22;42600;54.408;13.016;2024-03-06T08:17:28;5.50;92.70
420;DHT22;42600;54.408;13.016;2024-03-06T08:19:55;5.50;92.70
420;DHT22;42600;54.408;13.016;2024-03-06T08:22:22;5.60;92.70
420;DHT22;42600;54.408;13.016;2024-03-06T08:24:49;5.60;92.70
420;DHT22;42600;54.408;13.016;2024-03-06T08:27:15;5.50;92.70
420;DHT22;42600;54.408;13.016;2024-03-06T08:29:42;5.60;92.70
420;DHT22;42600;54.408;13.016;2024-03-06T08:32:09;5.50;92.70
420;DHT22;42600;54.408;13.016;2024-03-06T08:34:35;5.50;92.70
420;DHT22;42600;54.408;13.016;2024-03-06T08:37:02;5.40;92.70
420;DHT22;42600;54.408;13.016;2024-03-06T08:39:30;5.50;92.70
420;DHT22;42600;54.408;13.016;2024-03-06T08:41:56;5.40;92.70
420;DHT22;42600;54.408;13.016;2024-03-06T08:44:23;5.40;92.70
420;DHT22;42600;54.408;13.016;2024-03-06T08:46:50;5.40;92.70
420;DHT22;42600;54.408;13.016;2024-03-06T08:49:16;5.40;92.70
420;DHT22;42600;54.408;13.016;2024-03-06T08:51:43;5.40;92.70
420;DHT22;42600;54.408;13.016;2024-03-06T08:54:09;5.40;92.70
420;DHT22;42600;54.408;13.016;2024-03-06T08:56:37;5.40;92.70
420;DHT22;42600;54.408;13.016;2024-03-06T08:59:04;5.40;92.70
420;DHT22;42600;54.408;13.016;2024-03-06T09:01:30;5.40;92.70
420;DHT22;42600;54.408;13.016;2024-03-06T09:03:57;5.50;92.70
420;DHT22;42600;54.408;13.016;2024-03-06T09:06:23;5.60;92.70
420;DHT22;42600;54.408;13.016;2024-03-06T09:08:50;5.50;92.70
420;DHT22;42600;54.408;13.016;2024-03-06T09:11:17;5.60;92.70
420;DHT22;42600;54.408;13.016;2024-03-06T09:13:45;5.60;92.70
420;DHT22;42600;54.408;13.016;2024-03-06T09:16:11;5.50;92.70
420;DHT22;42600;54.408;13.016;2024-03-06T09:18:38;5.40;92.70
420;DHT22;42600;54.408;13.016;2024-03-06T09:21:04;5.30;92.70
420;DHT22;42600;54.408;13.016;2024-03-06T09:23:31;5.30;92.70
420;DHT22;42600;54.408;13.016;2024-03-06T09:25:58;5.30;92.70
420;DHT22;42600;54.408;13.016;2024-03-06T09:28:25;5.30;92.70
420;DHT22;42600;54.408;13.016;2024-03-06T09:30:52;5.40;92.70
420;DHT22;42600;54.408;13.016;2024-03-06T09:33:19;5.40;92.70
420;DHT22;42600;54.408;13.016;2024-03-06T09:35:46;5.30;92.70
420;DHT22;42600;54.408;13.016;2024-03-06T09:38:12;5.40;92.70
420;DHT22;42600;54.408;13.016;2024-03-06T09:40:39;5.50;92.70
420;DHT22;42600;54.408;13.016;2024-03-06T09:43:07;5.60;92.70
420;DHT22;42600;54.408;13.016;2024-03-06T09:45:34;5.60;92.70
420;DHT22;42600;54.408;13.016;2024-03-06T09:48:02;5.60;92.70
420;DHT22;42600;54.408;13.016;2024-03-06T09:50:32;5.60;92.70
420;DHT22;42600;54.408;13.016;2024-03-06T09:53:05;5.70;92.70
420;DHT22;42600;54.408;13.016;2024-03-06T09:55:34;5.70;92.70
420;DHT22;42600;54.408;13.016;2024-03-06T09:58:02;5.70;92.70
420;DHT22;42600;54.408;13.016;2024-03-06T10:00:30;5.70;92.70
420;DHT22;42600;54.408;13.016;2024-03-06T10:02:58;5.60;92.70
420;DHT22;42600;54.408;13.016;2024-03-06T10:05:27;5.60;92.70
420;DHT22;42600;54.408;13.016;2024-03-06T10:07:55;5.70;92.70
420;DHT22;42600;54.408;13.016;2024-03-06T10:10:23;5.90;92.70
420;DHT22;42600;54.408;13.016;2024-03-06T10:12:50;5.80;92.70
420;DHT22;42600;54.408;13.016;2024-03-06T10:15:17;5.80;92.70
420;DHT22;42600;54.408;13.016;2024-03-06T10:17:43;5.80;92.70
420;DHT22;42600;54.408;13.016;2024-03-06T10:20:19;6.00;92.70
420;DHT22;42600;54.408;13.016;2024-03-06T10:22:51;6.10;92.70
420;DHT22;42600;54.408;13.016;2024-03-06T10:25:19;6.20;92.70
420;DHT22;42600;54.408;13.016;2024-03-06T10:27:47;6.10;92.70
420;DHT22;42600;54.408;13.016;2024-03-06T10:30:26;6.40;92.70
420;DHT22;42600;54.408;13.016;2024-03-06T10:32:53;6.40;92.70
420;DHT22;42600;54.408;13.016;2024-03-06T10:35:20;6.40;92.70
420;DHT22;42600;54.408;13.016;2024-03-06T10:37:49;6.50;92.70
420;DHT22;42600;54.408;13.016;2024-03-06T10:40:17;6.50;92.70
420;DHT22;42600;54.408;13.016;2024-03-06T10:42:45;6.50;92.70
420;DHT22;42600;54.408;13.016;2024-03-06T10:45:13;6.50;92.70
420;DHT22;42600;54.408;13.016;2024-03-06T10:47:41;6.50;92.70
420;DHT22;42600;54.408;13.016;2024-03-06T10:50:11;6.40;92.70
420;DHT22;42600;54.408;13.016;2024-03-06T10:52:40;6.40;92.70
420;DHT22;42600;54.408;13.016;2024-03-06T10:55:08;6.30;92.70
420;DHT22;42600;54.408;13.016;2024-03-06T10:57:38;6.40;92.70
420;DHT22;42600;54.408;13.016;2024-03-06T11:00:07;6.50;92.70
420;DHT22;42600;54.408;13.016;2024-03-06T11:02:36;6.50;92.70
420;DHT22;42600;54.408;13.016;2024-03-06T11:05:04;6.40;92.70
420;DHT22;42600;54.408;13.016;2024-03-06T11:07:31;6.50;92.70
420;DHT22;42600;54.408;13.016;2024-03-06T11:09:59;6.50;92.70
420;DHT22;42600;54.408;13.016;2024-03-06T11:12:35;6.50;92.70
420;DHT22;42600;54.408;13.016;2024-03-06T11:15:09;6.40;92.70
420;DHT22;42600;54.408;13.016;2024-03-06T11:17:36;6.40;92.70
420;DHT22;42600;54.408;13.016;2024-03-06T11:20:13;6.30;92.70
420;DHT22;42600;54.408;13.016;2024-03-06T11:23:07;6.30;92.70
420;DHT22;42600;54.408;13.016;2024-03-06T11:26:04;6.40;92.70
420;DHT22;42600;54.408;13.016;2024-03-06T11:28:34;6.30;92.70
420;DHT22;42600;54.408;13.016;2024-03-06T11:31:02;6.30;92.70
420;DHT22;42600;54.408;13.016;2024-03-06T11:33:34;6.30;92.70
420;DHT22;42600;54.408;13.016;2024-03-06T11:36:16;6.30;92.70
420;DHT22;42600;54.408;13.016;2024-03-06T11:38:47;6.30;92.70
420;DHT22;42600;54.408;13.016;2024-03-06T11:41:14;6.30;92.70
420;DHT22;42600;54.408;13.016;2024-03-06T11:43:45;6.20;92.70
420;DHT22;42600;54.408;13.016;2024-03-06T11:46:15;6.30;92.70
420;DHT22;42600;54.408;13.016;2024-03-06T11:48:43;6.20;92.70
420;DHT22;42600;54.408;13.016;2024-03-06T11:51:10;6.20;92.70
420;DHT22;42600;54.408;13.016;2024-03-06T11:53:37;6.30;92.70
420;DHT22;42600;54.408;13.016;2024-03-06T11:56:06;6.30;92.70
420;DHT22;42600;54.408;13.016;2024-03-06T11:58:33;6.10;92.70
420;DHT22;42600;54.408;13.016;2024-03-06T12:01:02;6.10;92.70
420;DHT22;42600;54.408;13.016;2024-03-06T12:03:30;6.10;92.70
420;DHT22;42600;54.408;13.016;2024-03-06T12:05:57;6.10;92.70
420;DHT22;42600;54.408;13.016;2024-03-06T12:08:24;6.10;92.70
420;DHT22;42600;54.408;13.016;2024-03-06T12:10:51;6.10;92.70
420;DHT22;42600;54.408;13.016;2024-03-06T12:13:20;6.10;92.70
420;DHT22;42600;54.408;13.016;2024-03-06T12:15:48;6.00;92.70
420;DHT22;42600;54.408;13.016;2024-03-06T12:18:16;6.10;92.70
420;DHT22;42600;54.408;13.016;2024-03-06T12:20:43;6.10;92.70
420;DHT22;42600;54.408;13.016;2024-03-06T12:23:19;6.10;92.70
420;DHT22;42600;54.408;13.016;2024-03-06T12:25:47;6.10;92.70
420;DHT22;42600;54.408;13.016;2024-03-06T12:28:13;6.00;92.70
420;DHT22;42600;54.408;13.016;2024-03-06T12:30:41;6.00;92.70
420;DHT22;42600;54.408;13.016;2024-03-06T12:33:10;5.90;92.70
420;DHT22;42600;54.408;13.016;2024-03-06T12:35:41;5.80;92.70
420;DHT22;42600;54.408;13.016;2024-03-06T12:38:14;5.80;92.70
420;DHT22;42600;54.408;13.016;2024-03-06T12:40:41;5.90;92.70
420;DHT22;42600;54.408;13.016;2024-03-06T12:43:09;5.80;92.70
420;DHT22;42600;54.408;13.016;2024-03-06T12:45:36;5.80;92.70
420;DHT22;42600;54.408;13.016;2024-03-06T12:48:04;5.90;92.70
420;DHT22;42600;54.408;13.016;2024-03-06T12:50:32;5.80;92.70
420;DHT22;42600;54.408;13.016;2024-03-06T12:53:00;5.80;92.70
420;DHT22;42600;54.408;13.016;2024-03-06T12:55:30;5.80;92.70
420;DHT22;42600;54.408;13.016;2024-03-06T12:57:57;5.80;92.70
420;DHT22;42600;54.408;13.016;2024-03-06T13:00:23;5.80;92.70
420;DHT22;42600;54.408;13.016;2024-03-06T13:02:50;5.80;92.70
420;DHT22;42600;54.408;13.016;2024-03-06T13:05:17;5.70;92.70
420;DHT22;42600;54.408;13.016;2024-03-06T13:07:45;5.80;92.70
420;DHT22;42600;54.408;13.016;2024-03-06T13:10:13;5.80;92.70
420;DHT22;42600;54.408;13.016;2024-03-06T13:12:39;5.70;92.70
420;DHT22;42600;54.408;13.016;2024-03-06T13:15:06;5.70;92.70
420;DHT22;42600;54.408;13.016;2024-03-06T13:17:33;5.70;92.70
420;DHT22;42600;54.408;13.016;2024-03-06T13:20:00;5.70;92.70
420;DHT22;42600;54.408;13.016;2024-03-06T13:22:27;5.70;92.70
420;DHT22;42600;54.408;13.016;2024-03-06T13:24:54;5.70;92.70
420;DHT22;42600;54.408;13.016;2024-03-06T13:27:23;5.60;92.70
420;DHT22;42600;54.408;13.016;2024-03-06T13:29:50;5.60;92.70
420;DHT22;42600;54.408;13.016;2024-03-06T13:32:17;5.60;92.70
420;DHT22;42600;54.408;13.016;2024-03-06T13:34:44;5.70;92.70
420;DHT22;42600;54.408;13.016;2024-03-06T13:37:10;5.60;92.70
420;DHT22;42600;54.408;13.016;2024-03-06T13:39:37;5.60;92.70
420;DHT22;42600;54.408;13.016;2024-03-06T13:42:05;5.60;92.70
420;DHT22;42600;54.408;13.016;2024-03-06T13:44:35;5.60;92.70
420;DHT22;42600;54.408;13.016;2024-03-06T13:47:02;5.60;92.70
420;DHT22;42600;54.408;13.016;2024-03-06T13:49:37;5.60;92.70
420;DHT22;42600;54.408;13.016;2024-03-06T13:52:04;5.60;92.70
420;DHT22;42600;54.408;13.016;2024-03-06T13:54:32;5.60;92.70
420;DHT22;42600;54.408;13.016;2024-03-06T13:56:59;5.50;92.70
420;DHT22;42600;54.408;13.016;2024-03-06T13:59:27;5.50;92.70
420;DHT22;42600;54.408;13.016;2024-03-06T14:01:54;5.50;92.70
420;DHT22;42600;54.408;13.016;2024-03-06T14:04:21;5.50;92.70
420;DHT22;42600;54.408;13.016;2024-03-06T14:06:49;5.50;92.70
420;DHT22;42600;54.408;13.016;2024-03-06T14:09:15;5.50;92.70
420;DHT22;42600;54.408;13.016;2024-03-06T14:11:42;5.50;92.70
420;DHT22;42600;54.408;13.016;2024-03-06T14:14:09;5.50;92.70
420;DHT22;42600;54.408;13.016;2024-03-06T14:16:36;5.50;92.70
420;DHT22;42600;54.408;13.016;2024-03-06T14:19:04;5.50;92.70
420;DHT22;42600;54.408;13.016;2024-03-06T14:21:31;5.50;92.70
420;DHT22;42600;54.408;13.016;2024-03-06T14:23:58;5.40;92.70
420;DHT22;42600;54.408;13.016;2024-03-06T14:26:25;5.50;92.70
420;DHT22;42600;54.408;13.016;2024-03-06T14:28:53;5.50;92.70
420;DHT22;42600;54.408;13.016;2024-03-06T14:31:19;5.40;92.70
420;DHT22;42600;54.408;13.016;2024-03-06T14:33:46;5.40;92.70
420;DHT22;42600;54.408;13.016;2024-03-06T14:36:15;5.40;92.70
420;DHT22;42600;54.408;13.016;2024-03-06T14:38:42;5.40;92.70
420;DHT22;42600;54.408;13.016;2024-03-06T14:41:09;5.30;92.70
420;DHT22;42600;54.408;13.016;2024-03-06T14:43:36;5.20;92.70
420;DHT22;42600;54.408;13.016;2024-03-06T14:46:04;5.10;92.70
420;DHT22;42600;54.408;13.016;2024-03-06T14:48:31;5.10;92.70
420;DHT22;42600;54.408;13.016;2024-03-06T14:50:57;5.00;92.70
420;DHT22;42600;54.408;13.016;2024-03-06T14:53:25;5.00;92.70
420;DHT22;42600;54.408;13.016;2024-03-06T14:55:52;4.90;92.70
420;DHT22;42600;54.408;13.016;2024-03-06T14:58:19;4.90;92.70
420;DHT22;42600;54.408;13.016;2024-03-06T15:00:46;4.90;92.70
420;DHT22;42600;54.408;13.016;2024-03-06T15:03:12;4.80;92.70
420;DHT22;42600;54.408;13.016;2024-03-06T15:05:39;4.80;92.70
420;DHT22;42600;54.408;13.016;2024-03-06T15:08:06;4.80;92.70
420;DHT22;42600;54.408;13.016;2024-03-06T15:10:34;4.70;92.70
420;DHT22;42600;54.408;13.016;2024-03-06T15:13:00;4.70;92.70
420;DHT22;42600;54.408;13.016;2024-03-06T15:15:27;4.80;92.70
420;DHT22;42600;54.408;13.016;2024-03-06T15:17:53;4.70;92.70
420;DHT22;42600;54.408;13.016;2024-03-06T15:20:20;4.80;92.70
420;DHT22;42600;54.408;13.016;2024-03-06T15:22:46;4.70;92.70
420;DHT22;42600;54.408;13.016;2024-03-06T15:25:13;4.70;92.70
420;DHT22;42600;54.408;13.016;2024-03-06T15:27:41;4.70;92.70
420;DHT22;42600;54.408;13.016;2024-03-06T15:30:09;4.70;92.70
420;DHT22;42600;54.408;13.016;2024-03-06T15:32:36;4.70;92.70
420;DHT22;42600;54.408;13.016;2024-03-06T15:35:04;4.80;92.70
420;DHT22;42600;54.408;13.016;2024-03-06T15:37:31;4.70;92.70
420;DHT22;42600;54.408;13.016;2024-03-06T15:39:58;4.70;92.70
420;DHT22;42600;54.408;13.016;2024-03-06T15:42:24;4.70;92.70
420;DHT22;42600;54.408;13.016;2024-03-06T15:44:53;4.80;92.70
420;DHT22;42600;54.408;13.016;2024-03-06T15:47:20;4.70;92.70
420;DHT22;42600;54.408;13.016;2024-03-06T15:49:47;4.70;92.70
420;DHT22;42600;54.408;13.016;2024-03-06T15:52:14;4.70;92.70
420;DHT22;42600;54.408;13.016;2024-03-06T15:54:40;4.70;92.70
420;DHT22;42600;54.408;13.016;2024-03-06T15:57:07;4.70;92.70
420;DHT22;42600;54.408;13.016;2024-03-06T15:59:34;4.70;92.70
420;DHT22;42600;54.408;13.016;2024-03-06T16:02:03;4.70;92.70
420;DHT22;42600;54.408;13.016;2024-03-06T16:04:30;4.70;92.70